createdAt,value
2022-09-27T00:00:45.127Z,75.60
2022-09-27T00:03:13.842Z,75.49
2022-09-27T00:05:42.377Z,75.59
2022-09-27T00:08:10.436Z,75.73
2022-09-27T00:10:39.748Z,75.27
2022-09-27T00:13:10.122Z,75.82
2022-09-27T00:15:45.458Z,75.59
2022-09-27T00:18:13.500Z,75.51
2022-09-27T00:20:41.459Z,76.07
2022-09-27T00:23:09.883Z,75.39
2022-09-27T00:25:41.903Z,76.01
2022-09-27T00:28:10.089Z,75.67
2022-09-27T00:30:43.240Z,76.08
2022-09-27T00:33:23.650Z,75.62
2022-09-27T00:35:51.691Z,75.78
2022-09-27T00:38:19.863Z,75.95
2022-09-27T00:40:56.715Z,75.97
2022-09-27T00:43:25.045Z,76.04
2022-09-27T00:45:56.819Z,76.36
2022-09-27T00:48:29.990Z,76.40
2022-09-27T00:51:04.860Z,76.48
2022-09-27T00:53:36.041Z,76.28
2022-09-27T00:56:20.038Z,76.22
2022-09-27T00:59:11.921Z,76.26
2022-09-27T01:01:40.854Z,76.04
2022-09-27T01:04:10.699Z,76.02
2022-09-27T01:06:39.077Z,76.14
2022-09-27T01:09:09.227Z,76.15
2022-09-27T01:11:46.989Z,76.13
2022-09-27T01:14:40.801Z,76.23
2022-09-27T01:17:26.643Z,76.18
2022-09-27T01:20:42.854Z,76.16
2022-09-27T01:23:43.794Z,76.22
2022-09-27T01:26:21.737Z,76.23
2022-09-27T01:29:01.832Z,76.82
2022-09-27T01:31:37.080Z,76.51
2022-09-27T01:34:10.389Z,76.90
2022-09-27T01:37:01.716Z,76.78
2022-09-27T01:40:02.706Z,77.51
2022-09-27T01:42:37.352Z,76.79
2022-09-27T01:45:14.688Z,76.64
2022-09-27T01:48:08.802Z,76.57
2022-09-27T01:51:05.978Z,75.97
2022-09-27T01:53:38.311Z,75.98
2022-09-27T01:56:31.894Z,75.94
2022-09-27T01:59:17.050Z,76.14
2022-09-27T02:02:05.586Z,76.54
2022-09-27T02:04:59.580Z,76.59
2022-09-27T02:07:39.195Z,76.86
2022-09-27T02:10:12.362Z,76.40
2022-09-27T02:13:00.445Z,76.36
2022-09-27T02:15:29.967Z,76.97
2022-09-27T02:18:26.390Z,76.42
2022-09-27T02:21:00.110Z,76.71
2022-09-27T02:23:37.206Z,76.84
2022-09-27T02:26:17.289Z,76.89
2022-09-27T02:28:49.759Z,76.80
2022-09-27T02:31:25.596Z,77.48
2022-09-27T02:34:00.961Z,76.65
2022-09-27T02:36:31.177Z,77.00
2022-09-27T02:39:02.477Z,77.10
2022-09-27T02:41:36.851Z,77.01
2022-09-27T02:44:11.364Z,77.27
2022-09-27T02:47:14.357Z,77.50
2022-09-27T02:50:06.065Z,77.46
2022-09-27T02:53:08.114Z,76.84
2022-09-27T02:55:51.373Z,77.02
2022-09-27T02:58:52.596Z,76.63
2022-09-27T03:01:39.552Z,76.88
2022-09-27T03:04:16.613Z,77.25
2022-09-27T03:06:48.918Z,76.62
2022-09-27T03:09:22.165Z,76.80
2022-09-27T03:11:50.522Z,77.02
2022-09-27T03:14:20.660Z,77.00
2022-09-27T03:17:08.331Z,76.27
2022-09-27T03:20:06.698Z,77.41
2022-09-27T03:22:54.872Z,76.73
2022-09-27T03:25:25.306Z,77.40
2022-09-27T03:27:53.228Z,76.58
2022-09-27T03:30:21.464Z,76.96
2022-09-27T03:32:49.416Z,76.87
2022-09-27T03:35:32.303Z,76.47
2022-09-27T03:38:04.130Z,76.86
2022-09-27T03:40:34.653Z,77.32
2022-09-27T03:43:10.549Z,77.21
2022-09-27T03:45:38.416Z,77.83
2022-09-27T03:48:10.067Z,77.53
2022-09-27T03:50:38.351Z,78.01
2022-09-27T03:53:09.011Z,77.33
2022-09-27T03:55:41.348Z,77.44
2022-09-27T03:58:17.193Z,78.36
2022-09-27T04:00:48.737Z,77.94
2022-09-27T04:03:17.580Z,78.37
2022-09-27T04:06:04.315Z,79.07
2022-09-27T04:08:38.799Z,78.57
2022-09-27T04:11:12.580Z,78.12
2022-09-27T04:13:45.388Z,79.02
2022-09-27T04:16:14.000Z,78.78
2022-09-27T04:19:12.603Z,78.16
2022-09-27T04:21:50.130Z,77.86
2022-09-27T04:24:19.049Z,78.50
2022-09-27T04:27:08.009Z,78.48
2022-09-27T04:29:43.231Z,78.01
2022-09-27T04:32:27.184Z,78.53
2022-09-27T04:35:32.285Z,78.75
2022-09-27T04:38:04.156Z,77.81
2022-09-27T04:40:35.569Z,78.40
2022-09-27T04:43:05.166Z,78.83
2022-09-27T04:45:33.170Z,77.89
2022-09-27T04:48:03.545Z,78.50
2022-09-27T04:50:40.297Z,78.76
2022-09-27T04:53:15.075Z,78.17
2022-09-27T04:55:47.402Z,78.64
2022-09-27T04:58:17.679Z,78.02
2022-09-27T05:00:46.945Z,79.02
2022-09-27T05:03:39.935Z,78.49
2022-09-27T05:06:15.343Z,78.09
2022-09-27T05:08:43.893Z,78.06
2022-09-27T05:11:29.228Z,78.44
2022-09-27T05:17:18.922Z,78.49
2022-09-27T05:20:15.786Z,78.43
2022-09-27T05:23:05.009Z,78.13
2022-09-27T05:25:34.007Z,78.35
2022-09-27T05:28:02.106Z,78.46
2022-09-27T05:30:30.243Z,78.67
2022-09-27T05:33:11.560Z,78.33
2022-09-27T05:35:54.906Z,77.84
2022-09-27T05:38:32.081Z,78.18
2022-09-27T05:41:04.117Z,78.26
2022-09-27T05:43:36.332Z,78.52
2022-09-27T05:46:07.709Z,77.96
2022-09-27T05:48:44.739Z,78.30
2022-09-27T05:51:16.320Z,78.13
2022-09-27T05:53:52.805Z,77.91
2022-09-27T05:56:42.220Z,77.88
2022-09-27T05:59:13.105Z,78.18
2022-09-27T06:01:59.821Z,78.46
2022-09-27T06:04:46.786Z,78.10
2022-09-27T06:07:34.264Z,78.68
2022-09-27T06:10:10.758Z,77.77
2022-09-27T06:12:38.824Z,77.75
2022-09-27T06:15:17.387Z,77.98
2022-09-27T06:17:46.888Z,77.90
2022-09-27T06:20:18.472Z,77.96
2022-09-27T06:22:54.090Z,77.97
2022-09-27T06:25:27.153Z,77.76
2022-09-27T06:28:30.515Z,77.71
2022-09-27T06:31:00.548Z,77.72
2022-09-27T06:33:41.513Z,77.22
2022-09-27T06:36:10.691Z,77.89
2022-09-27T06:38:42.071Z,77.69
2022-09-27T06:41:17.124Z,77.99
2022-09-27T06:44:14.555Z,77.89
2022-09-27T06:47:15.434Z,77.48
2022-09-27T06:50:05.331Z,78.01
2022-09-27T06:52:33.307Z,77.88
2022-09-27T06:55:02.808Z,77.43
2022-09-27T06:57:49.911Z,77.52
2022-09-27T07:00:27.540Z,77.38
2022-09-27T07:03:19.712Z,77.65
2022-09-27T07:06:22.768Z,77.64
2022-09-27T07:08:56.502Z,77.27
2022-09-27T07:11:26.118Z,77.47
2022-09-27T07:13:55.154Z,77.32
2022-09-27T07:16:23.973Z,77.24
2022-09-27T07:18:51.789Z,77.60
2022-09-27T07:21:19.805Z,77.75
2022-09-27T07:23:54.457Z,77.52
2022-09-27T07:26:22.917Z,78.39
2022-09-27T07:28:53.342Z,78.08
2022-09-27T07:31:23.006Z,77.76
2022-09-27T07:33:52.687Z,77.99
2022-09-27T07:36:20.649Z,78.25
2022-09-27T07:38:50.898Z,78.80
2022-09-27T07:41:23.879Z,77.87
2022-09-27T07:43:53.401Z,77.81
2022-09-27T07:46:22.469Z,78.19
2022-09-27T07:49:12.628Z,77.60
2022-09-27T07:52:09.740Z,77.89
2022-09-27T07:55:16.424Z,78.33
2022-09-27T07:58:04.744Z,77.82
2022-09-27T08:01:00.204Z,77.66
2022-09-27T08:03:31.177Z,78.21
2022-09-27T08:06:04.387Z,77.90
2022-09-27T08:08:33.051Z,78.03
2022-09-27T08:11:02.091Z,78.30
2022-09-27T08:13:29.931Z,78.69
2022-09-27T08:16:06.539Z,77.79
2022-09-27T08:18:51.850Z,77.81
2022-09-27T08:21:47.846Z,78.10
2022-09-27T08:24:26.068Z,78.05
2022-09-27T08:27:11.939Z,77.31
2022-09-27T08:30:00.678Z,77.87
2022-09-27T08:32:30.878Z,77.12
2022-09-27T08:35:01.570Z,78.09
2022-09-27T08:37:42.027Z,77.48
2022-09-27T08:40:15.293Z,77.16
2022-09-27T08:42:52.436Z,77.21
2022-09-27T08:45:37.290Z,77.12
2022-09-27T08:48:12.362Z,76.29
2022-09-27T08:50:44.248Z,76.60
2022-09-27T08:53:22.393Z,76.34
2022-09-27T08:55:56.427Z,75.43
2022-09-27T08:58:35.756Z,75.90
2022-09-27T09:01:15.786Z,75.86
2022-09-27T09:04:12.022Z,75.85
2022-09-27T09:06:53.787Z,75.59
2022-09-27T09:12:48.365Z,76.34
2022-09-27T09:15:54.269Z,75.93
2022-09-27T09:18:46.900Z,75.61
2022-09-27T09:21:32.454Z,74.95
2022-09-27T09:24:24.581Z,74.75
2022-09-27T09:27:14.631Z,74.75
2022-09-27T09:30:18.936Z,74.11
2022-09-27T09:33:16.716Z,74.35
2022-09-27T09:35:52.546Z,74.13
2022-09-27T09:38:38.732Z,74.37
2022-09-27T09:41:14.175Z,74.37
2022-09-27T09:43:48.072Z,74.17
2022-09-27T09:46:26.199Z,73.96
2022-09-27T09:49:02.984Z,74.04
2022-09-27T09:51:41.980Z,73.58
2022-09-27T09:54:20.732Z,73.86
2022-09-27T09:56:51.709Z,74.37
2022-09-27T09:59:27.957Z,74.17
2022-09-27T10:02:04.625Z,74.34
2022-09-27T10:04:34.626Z,74.39
2022-09-27T10:07:03.890Z,74.93
2022-09-27T10:09:38.226Z,74.79
2022-09-27T10:12:45.486Z,74.72
2022-09-27T10:15:17.801Z,74.11
2022-09-27T10:17:51.633Z,73.67
2022-09-27T10:20:27.964Z,73.04
2022-09-27T10:23:07.195Z,72.87
2022-09-27T10:25:57.846Z,72.51
2022-09-27T10:28:48.154Z,72.81
2022-09-27T10:31:21.759Z,73.11
2022-09-27T10:34:28.267Z,74.30
2022-09-27T10:37:18.768Z,74.86
2022-09-27T10:40:25.825Z,75.16
2022-09-27T10:42:56.284Z,75.73
2022-09-27T10:45:37.072Z,75.66
2022-09-27T10:48:22.286Z,76.23
2022-09-27T10:54:00.265Z,76.25
2022-09-27T10:56:33.851Z,75.86
2022-09-27T10:59:05.803Z,75.96
2022-09-27T11:01:50.722Z,75.20
2022-09-27T11:04:40.035Z,74.67
2022-09-27T11:07:20.103Z,73.42
2022-09-27T11:10:10.396Z,72.94
2022-09-27T11:12:42.094Z,71.04
2022-09-27T11:15:20.986Z,70.70
2022-09-27T11:18:03.468Z,71.12
2022-09-27T11:20:40.512Z,71.41
2022-09-27T11:23:44.564Z,71.71
2022-09-27T11:26:38.609Z,72.16
2022-09-27T11:29:23.027Z,72.48
2022-09-27T11:32:38.347Z,72.60
2022-09-27T11:35:33.382Z,72.94
2022-09-27T11:38:40.915Z,73.17
2022-09-27T11:41:34.390Z,73.00
2022-09-27T11:44:22.836Z,74.33
2022-09-27T11:46:58.968Z,74.28
2022-09-27T11:49:54.484Z,74.82
2022-09-27T11:52:46.316Z,75.06
2022-09-27T11:55:34.199Z,76.08
2022-09-27T11:58:15.665Z,76.10
2022-09-27T12:01:07.969Z,77.55
2022-09-27T12:04:01.206Z,77.62
2022-09-27T12:06:56.379Z,77.23
2022-09-27T12:10:06.872Z,77.31
2022-09-27T12:12:40.917Z,77.47
2022-09-27T12:15:17.445Z,77.06
2022-09-27T12:17:52.584Z,76.76
2022-09-27T12:20:24.447Z,76.77
2022-09-27T12:23:04.199Z,76.40
2022-09-27T12:26:07.134Z,76.82
2022-09-27T12:28:41.953Z,76.73
2022-09-27T12:31:34.528Z,77.40
2022-09-27T12:34:20.632Z,77.43
2022-09-27T12:37:08.612Z,77.53
2022-09-27T12:39:51.153Z,77.48
2022-09-27T12:42:43.199Z,76.70
2022-09-27T12:45:35.378Z,77.06
2022-09-27T12:48:14.087Z,76.67
2022-09-27T12:50:45.770Z,76.69
2022-09-27T12:53:23.680Z,76.83
2022-09-27T12:56:26.561Z,76.38
2022-09-27T12:59:26.986Z,76.90
2022-09-27T13:02:29.219Z,76.45
2022-09-27T13:05:32.161Z,76.11
2022-09-27T13:08:45.318Z,75.87
2022-09-27T13:11:24.720Z,76.61
2022-09-27T13:13:57.303Z,75.79
2022-09-27T13:16:28.806Z,76.04
2022-09-27T13:19:01.393Z,75.70
2022-09-27T13:21:59.534Z,75.94
2022-09-27T13:24:55.298Z,75.99
2022-09-27T13:28:39.941Z,76.41
2022-09-27T13:31:18.853Z,75.86
2022-09-27T13:33:53.599Z,75.93
2022-09-27T13:36:33.199Z,75.37
2022-09-27T13:39:21.230Z,74.99
2022-09-27T13:42:35.377Z,74.92
2022-09-27T13:45:32.906Z,74.90
2022-09-27T13:48:03.280Z,74.72
2022-09-27T13:50:47.015Z,74.48
2022-09-27T13:53:34.019Z,74.30
2022-09-27T13:56:05.614Z,74.13
2022-09-27T13:59:00.803Z,74.84
2022-09-27T14:02:10.551Z,74.15
2022-09-27T14:04:46.781Z,73.93
2022-09-27T14:07:21.235Z,73.87
2022-09-27T14:09:55.472Z,73.80
2022-09-27T14:12:33.165Z,73.58
2022-09-27T14:15:05.334Z,73.58
2022-09-27T14:17:36.128Z,73.87
2022-09-27T14:20:32.953Z,74.11
2022-09-27T14:23:02.326Z,74.22
2022-09-27T14:25:40.399Z,74.17
2022-09-27T14:28:26.193Z,74.30
2022-09-27T14:31:23.107Z,74.76
2022-09-27T14:34:17.129Z,74.74
2022-09-27T14:37:07.340Z,75.59
2022-09-27T14:39:55.208Z,76.29
2022-09-27T14:42:32.941Z,76.92
2022-09-27T14:45:14.648Z,76.99
2022-09-27T14:47:47.577Z,77.99
2022-09-27T14:50:24.607Z,77.71
2022-09-27T14:52:56.174Z,78.67
2022-09-27T14:55:28.359Z,79.37
2022-09-27T14:57:58.912Z,79.67
2022-09-27T15:00:32.170Z,79.77
2022-09-27T15:03:03.320Z,79.78
2022-09-27T15:05:34.444Z,80.19
2022-09-27T15:08:05.777Z,79.89
2022-09-27T15:10:36.308Z,80.09
2022-09-27T15:13:06.964Z,80.66
2022-09-27T15:15:41.615Z,79.80
2022-09-27T15:18:46.662Z,79.22
2022-09-27T15:21:31.016Z,79.33
2022-09-27T15:23:59.523Z,79.43
2022-09-27T15:26:47.552Z,78.28
2022-09-27T15:29:20.995Z,78.34
2022-09-27T15:32:00.557Z,78.09
2022-09-27T15:34:32.847Z,77.59
2022-09-27T15:37:03.746Z,77.88
2022-09-27T15:39:34.957Z,77.23
2022-09-27T15:42:08.804Z,77.70
2022-09-27T15:44:50.557Z,78.26
2022-09-27T15:47:41.203Z,78.12
2022-09-27T15:50:44.889Z,77.51
2022-09-27T15:53:44.659Z,77.31
2022-09-27T15:56:16.875Z,77.39
2022-09-27T15:58:45.830Z,77.10
2022-09-27T16:01:19.816Z,77.15
2022-09-27T16:03:48.039Z,77.27
2022-09-27T16:06:16.035Z,77.58
2022-09-27T16:08:45.992Z,77.64
2022-09-27T16:11:17.151Z,77.92
2022-09-27T16:13:45.260Z,77.42
2022-09-27T16:16:17.204Z,77.32
2022-09-27T16:18:46.745Z,77.62
2022-09-27T16:21:16.396Z,77.73
2022-09-27T16:23:45.617Z,77.56
2022-09-27T16:26:13.759Z,77.73
2022-09-27T16:28:41.664Z,77.74
2022-09-27T16:31:10.295Z,77.37
2022-09-27T16:33:38.086Z,77.56
2022-09-27T16:36:09.166Z,76.98
2022-09-27T16:38:40.084Z,77.62
2022-09-27T16:41:09.454Z,77.16
2022-09-27T16:43:49.760Z,77.08
2022-09-27T16:46:19.881Z,77.23
2022-09-27T16:48:48.797Z,77.28
2022-09-27T16:51:36.033Z,77.75
2022-09-27T16:54:05.617Z,76.98
2022-09-27T16:56:35.570Z,76.95
2022-09-27T16:59:05.339Z,77.37
2022-09-27T17:01:35.401Z,78.07
2022-09-27T17:04:10.615Z,77.96
2022-09-27T17:06:38.812Z,78.59
2022-09-27T17:09:07.107Z,78.82
2022-09-27T17:11:39.472Z,79.18
2022-09-27T17:14:07.359Z,79.39
2022-09-27T17:16:35.661Z,79.10
2022-09-27T17:19:03.486Z,79.91
2022-09-27T17:21:37.755Z,79.53
2022-09-27T17:24:09.826Z,79.40
2022-09-27T17:26:42.418Z,79.57
2022-09-27T17:29:11.500Z,79.56
2022-09-27T17:31:40.377Z,79.87
2022-09-27T17:34:10.348Z,79.39
2022-09-27T17:36:41.687Z,79.40
2022-09-27T17:39:12.645Z,78.63
2022-09-27T17:41:59.781Z,78.85
2022-09-27T17:44:28.064Z,78.64
2022-09-27T17:47:20.159Z,78.74
2022-09-27T17:50:07.115Z,78.80
2022-09-27T17:52:35.190Z,78.40
2022-09-27T17:55:06.722Z,78.11
2022-09-27T17:57:35.864Z,78.20
2022-09-27T18:00:04.602Z,78.67
2022-09-27T18:02:41.360Z,77.70
2022-09-27T18:05:12.555Z,78.17
2022-09-27T18:07:40.350Z,77.77
2022-09-27T18:10:16.761Z,78.01
2022-09-27T18:12:46.050Z,78.01
2022-09-27T18:15:19.919Z,78.24
2022-09-27T18:18:02.513Z,78.57
2022-09-27T18:20:30.240Z,78.41
2022-09-27T18:22:59.361Z,77.51
2022-09-27T18:25:27.173Z,77.65
2022-09-27T18:28:05.377Z,78.03
2022-09-27T18:30:36.836Z,77.93
2022-09-27T18:33:21.497Z,78.21
2022-09-27T18:35:49.101Z,78.96
2022-09-27T18:38:26.015Z,78.20
2022-09-27T18:40:57.607Z,77.61
2022-09-27T18:43:26.893Z,77.77
2022-09-27T18:46:24.011Z,77.71
2022-09-27T18:48:52.094Z,78.75
2022-09-27T18:51:26.739Z,78.75
2022-09-27T18:54:04.596Z,78.44
2022-09-27T18:56:39.136Z,77.86
2022-09-27T18:59:11.310Z,77.93
2022-09-27T19:01:48.348Z,77.93
2022-09-27T19:04:24.077Z,78.18
2022-09-27T19:06:54.186Z,78.23
2022-09-27T19:09:26.232Z,77.83
2022-09-27T19:11:57.087Z,77.53
2022-09-27T19:14:26.231Z,78.08
2022-09-27T19:16:54.052Z,77.75
2022-09-27T19:19:22.165Z,78.38
2022-09-27T19:21:52.836Z,78.05
2022-09-27T19:24:21.162Z,78.38
2022-09-27T19:26:53.418Z,77.97
2022-09-27T19:29:22.717Z,78.56
2022-09-27T19:31:54.445Z,78.34
2022-09-27T19:34:22.234Z,78.83
2022-09-27T19:36:52.998Z,79.04
2022-09-27T19:39:28.624Z,79.76
2022-09-27T19:41:56.381Z,79.73
2022-09-27T19:44:26.831Z,79.32
2022-09-27T19:47:07.021Z,79.14
2022-09-27T19:49:36.929Z,79.34
2022-09-27T19:52:08.237Z,79.46
2022-09-27T19:54:37.273Z,79.38
2022-09-27T19:57:05.380Z,79.33
2022-09-27T19:59:33.253Z,79.82
2022-09-27T20:02:07.151Z,79.44
2022-09-27T20:04:35.022Z,79.63
2022-09-27T20:07:02.856Z,79.44
2022-09-27T20:09:30.715Z,79.47
2022-09-27T20:11:58.509Z,79.86
2022-09-27T20:14:27.388Z,79.36
2022-09-27T20:16:55.227Z,79.54
2022-09-27T20:19:24.415Z,79.29
2022-09-27T20:21:52.152Z,79.17
2022-09-27T20:24:20.480Z,79.78
2022-09-27T20:26:48.195Z,79.44
2022-09-27T20:29:16.085Z,79.13
2022-09-27T20:32:09.027Z,78.55
2022-09-27T20:34:33.197Z,78.43
2022-09-27T20:37:00.939Z,78.48
2022-09-27T20:39:28.658Z,78.44
2022-09-27T20:42:10.709Z,78.20
2022-09-27T20:44:38.586Z,77.16
2022-09-27T20:47:06.457Z,77.21
2022-09-27T20:49:39.059Z,77.50
2022-09-27T20:52:16.469Z,77.13
2022-09-27T20:54:44.739Z,77.23
2022-09-27T20:57:12.587Z,77.35
2022-09-27T20:59:40.389Z,78.12
2022-09-27T21:02:09.220Z,77.01
2022-09-27T21:04:39.010Z,77.37
2022-09-27T21:07:32.617Z,77.44
2022-09-27T21:10:02.778Z,77.44
2022-09-27T21:12:39.948Z,77.37
2022-09-27T21:15:08.911Z,77.22
2022-09-27T21:17:36.831Z,77.73
2022-09-27T21:20:07.570Z,77.39
2022-09-27T21:22:35.399Z,77.82
2022-09-27T21:25:03.196Z,77.00
2022-09-27T21:27:31.231Z,77.00
2022-09-27T21:30:00.019Z,76.95
2022-09-27T21:32:28.132Z,77.89
2022-09-27T21:34:58.369Z,78.01
2022-09-27T21:37:27.551Z,77.67
2022-09-27T21:39:58.127Z,77.76
2022-09-27T21:42:25.858Z,78.05
2022-09-27T21:44:53.805Z,78.20
2022-09-27T21:47:21.835Z,78.09
2022-09-27T21:49:52.849Z,78.16
2022-09-27T21:52:22.963Z,78.62
2022-09-27T21:59:15.106Z,78.04
2022-09-27T22:01:47.002Z,78.51
2022-09-27T22:04:15.168Z,78.30
2022-09-27T22:06:43.050Z,78.41
2022-09-27T22:09:16.486Z,78.50
2022-09-27T22:11:47.176Z,78.41
2022-09-27T22:14:17.258Z,78.57
2022-09-27T22:16:45.178Z,78.88
2022-09-27T22:19:14.415Z,78.24
2022-09-27T22:21:43.024Z,78.10
2022-09-27T22:24:14.552Z,78.85
2022-09-27T22:26:45.954Z,78.82
2022-09-27T22:29:13.839Z,79.30
2022-09-27T22:31:43.235Z,78.25
2022-09-27T22:34:18.326Z,78.58
2022-09-27T22:36:46.346Z,78.84
2022-09-27T22:39:14.268Z,78.90
2022-09-27T22:41:42.122Z,78.64
2022-09-27T22:44:09.967Z,79.35
2022-09-27T22:46:37.795Z,78.99
2022-09-27T22:49:06.943Z,79.13
2022-09-27T22:51:38.431Z,79.76
2022-09-27T22:54:07.831Z,79.15
2022-09-27T22:56:36.416Z,79.99
2022-09-27T22:59:04.288Z,80.09
2022-09-27T23:01:32.263Z,79.35
2022-09-27T23:04:00.510Z,79.96
2022-09-27T23:06:29.750Z,80.06
2022-09-27T23:08:58.076Z,79.85
2022-09-27T23:11:25.831Z,80.06
2022-09-27T23:13:53.604Z,80.11
2022-09-27T23:16:24.399Z,80.53
2022-09-27T23:18:53.946Z,80.10
2022-09-27T23:21:24.123Z,79.89
2022-09-27T23:23:55.892Z,79.92
2022-09-27T23:26:29.064Z,79.61
2022-09-27T23:28:58.534Z,79.84
2022-09-27T23:31:29.550Z,79.77
2022-09-27T23:33:59.231Z,79.76
2022-09-27T23:36:31.266Z,79.93
2022-09-27T23:39:01.580Z,79.47
2022-09-27T23:41:29.597Z,79.49
2022-09-27T23:43:57.708Z,78.83
2022-09-27T23:46:26.406Z,78.82
2022-09-27T23:48:54.647Z,79.19
2022-09-27T23:51:22.574Z,79.54
2022-09-27T23:53:50.362Z,79.21
2022-09-27T23:56:19.458Z,79.34
2022-09-27T23:58:47.954Z,78.90
